createdAt,value
2023-03-17T00:01:55.999Z,88.07
2023-03-17T00:04:24.891Z,88.51
2023-03-17T00:06:52.908Z,88.31
2023-03-17T00:09:21.119Z,88.32
2023-03-17T00:11:48.868Z,88.59
2023-03-17T00:14:16.634Z,88.63
2023-03-17T00:16:48.398Z,88.16
2023-03-17T00:19:26.366Z,88.09
2023-03-17T00:21:53.344Z,87.74
2023-03-17T00:24:20.356Z,87.50
2023-03-17T00:26:48.182Z,87.18
2023-03-17T00:29:16.166Z,87.07
2023-03-17T00:31:45.470Z,87.51
2023-03-17T00:34:17.183Z,87.43
2023-03-17T00:36:48.012Z,87.24
2023-03-17T00:41:43.504Z,87.15
2023-03-17T00:44:11.764Z,87.54
2023-03-17T00:46:41.328Z,87.88
2023-03-17T00:49:21.444Z,88.22
2023-03-17T00:51:49.698Z,88.58
2023-03-17T00:54:18.574Z,88.47
2023-03-17T00:56:46.126Z,89.13
2023-03-17T00:59:26.258Z,88.85
2023-03-17T01:01:54.310Z,88.50
2023-03-17T01:04:21.420Z,89.56
2023-03-17T01:06:50.314Z,90.12
2023-03-17T01:09:20.213Z,90.24
2023-03-17T01:11:48.558Z,89.69
2023-03-17T01:14:15.963Z,89.45
2023-03-17T01:16:44.573Z,89.03
2023-03-17T01:19:15.099Z,89.22
2023-03-17T01:21:42.529Z,89.43
2023-03-17T01:24:09.750Z,89.61
2023-03-17T01:26:37.761Z,89.68
2023-03-17T01:29:06.304Z,89.53
2023-03-17T01:31:34.761Z,89.44
2023-03-17T01:34:02.555Z,89.57
2023-03-17T01:36:29.551Z,89.03
2023-03-17T01:38:57.168Z,89.47
2023-03-17T01:41:24.996Z,89.19
2023-03-17T01:43:52.059Z,89.22
2023-03-17T01:46:27.850Z,89.80
2023-03-17T01:48:57.678Z,89.18
2023-03-17T01:51:27.614Z,89.24
2023-03-17T01:53:56.386Z,89.44
2023-03-17T01:56:23.597Z,88.92
2023-03-17T01:58:54.204Z,88.54
2023-03-17T02:01:27.835Z,89.00
2023-03-17T02:03:55.158Z,88.85
2023-03-17T02:06:22.185Z,89.35
2023-03-17T02:08:49.188Z,88.35
2023-03-17T02:11:16.934Z,89.37
2023-03-17T02:13:44.677Z,89.29
2023-03-17T02:16:17.810Z,88.92
2023-03-17T02:18:47.705Z,90.17
2023-03-17T02:21:28.099Z,89.85
2023-03-17T02:23:56.117Z,88.81
2023-03-17T02:26:25.900Z,89.40
2023-03-17T02:28:53.666Z,90.14
2023-03-17T02:31:21.260Z,90.30
2023-03-17T02:33:48.276Z,90.13
2023-03-17T02:36:15.675Z,90.10
2023-03-17T02:38:45.441Z,90.25
2023-03-17T02:41:12.602Z,90.02
2023-03-17T02:43:41.278Z,90.63
2023-03-17T02:46:11.701Z,91.40
2023-03-17T02:48:39.812Z,91.28
2023-03-17T02:51:07.342Z,90.72
2023-03-17T02:53:34.429Z,90.57
2023-03-17T02:56:02.147Z,90.69
2023-03-17T02:58:29.228Z,91.01
2023-03-17T03:00:56.510Z,91.17
2023-03-17T03:03:23.601Z,90.45
2023-03-17T03:05:50.902Z,90.73
2023-03-17T03:08:17.902Z,91.09
2023-03-17T03:10:44.994Z,90.32
2023-03-17T03:13:12.459Z,90.21
2023-03-17T03:15:43.171Z,90.28
2023-03-17T03:18:10.254Z,90.12
2023-03-17T03:20:37.260Z,90.17
2023-03-17T03:23:04.440Z,90.60
2023-03-17T03:25:32.097Z,91.39
2023-03-17T03:27:59.165Z,90.86
2023-03-17T03:30:26.978Z,91.02
2023-03-17T03:32:54.014Z,90.56
2023-03-17T03:35:21.509Z,90.22
2023-03-17T03:37:48.530Z,90.05
2023-03-17T03:40:16.045Z,90.37
2023-03-17T03:42:43.088Z,90.51
2023-03-17T03:45:10.643Z,91.38
2023-03-17T03:47:37.622Z,90.65
2023-03-17T03:50:05.165Z,90.81
2023-03-17T03:52:32.412Z,90.42
2023-03-17T03:54:59.456Z,91.59
2023-03-17T03:57:26.472Z,91.30
2023-03-17T03:59:53.460Z,91.39
2023-03-17T04:02:20.618Z,90.48
2023-03-17T04:04:48.135Z,92.55
2023-03-17T04:07:15.613Z,92.42
2023-03-17T04:09:42.641Z,91.75
2023-03-17T04:12:10.021Z,92.47
2023-03-17T04:14:37.039Z,92.82
2023-03-17T04:17:05.112Z,92.49
2023-03-17T04:19:32.338Z,91.33
2023-03-17T04:21:59.361Z,92.49
2023-03-17T04:24:27.626Z,92.02
2023-03-17T04:26:54.806Z,91.31
2023-03-17T04:29:21.874Z,90.63
2023-03-17T04:31:48.955Z,91.55
2023-03-17T04:34:18.581Z,90.81
2023-03-17T04:36:47.170Z,90.61
2023-03-17T04:39:15.436Z,90.11
2023-03-17T04:41:42.529Z,90.73
2023-03-17T04:44:09.538Z,91.45
2023-03-17T04:46:36.617Z,91.34
2023-03-17T04:49:04.423Z,92.15
2023-03-17T04:51:31.712Z,91.97
2023-03-17T04:53:58.769Z,92.02
2023-03-17T04:56:25.980Z,91.84
2023-03-17T04:58:53.058Z,92.38
2023-03-17T05:01:21.595Z,92.98
2023-03-17T05:03:49.086Z,91.40
2023-03-17T05:06:16.565Z,91.61
2023-03-17T05:08:46.928Z,91.22
2023-03-17T05:11:14.356Z,91.27
2023-03-17T05:13:41.969Z,91.46
2023-03-17T05:16:09.880Z,91.79
2023-03-17T05:18:37.786Z,91.48
2023-03-17T05:21:07.787Z,91.81
2023-03-17T05:23:35.248Z,91.51
2023-03-17T05:26:02.456Z,91.57
2023-03-17T05:28:29.504Z,91.65
2023-03-17T05:30:56.682Z,91.76
2023-03-17T05:33:24.526Z,91.94
2023-03-17T05:35:52.204Z,91.37
2023-03-17T05:38:19.333Z,91.30
2023-03-17T05:40:50.012Z,89.97
2023-03-17T05:43:17.338Z,90.63
2023-03-17T05:45:45.468Z,90.36
2023-03-17T05:48:13.105Z,89.87
2023-03-17T05:50:41.512Z,90.81
2023-03-17T05:53:08.981Z,90.73
2023-03-17T05:55:36.164Z,90.50
2023-03-17T05:58:05.050Z,89.96
2023-03-17T06:00:32.879Z,90.85
2023-03-17T06:03:00.065Z,89.89
2023-03-17T06:05:27.168Z,90.84
2023-03-17T06:07:56.515Z,90.41
2023-03-17T06:10:24.262Z,89.42
2023-03-17T06:12:51.488Z,90.89
2023-03-17T06:15:18.958Z,90.41
2023-03-17T06:17:46.240Z,89.07
2023-03-17T06:20:14.146Z,89.75
2023-03-17T06:22:55.235Z,89.82
2023-03-17T06:25:28.428Z,89.71
2023-03-17T06:27:56.167Z,88.62
2023-03-17T06:30:23.235Z,88.54
2023-03-17T06:32:50.365Z,88.33
2023-03-17T06:35:18.032Z,87.75
2023-03-17T06:37:45.286Z,87.64
2023-03-17T06:40:13.016Z,87.57
2023-03-17T06:42:40.069Z,87.52
2023-03-17T06:45:09.254Z,86.15
2023-03-17T06:47:37.229Z,86.44
2023-03-17T06:50:05.803Z,85.72
2023-03-17T06:52:32.843Z,85.51
2023-03-17T06:54:59.838Z,85.44
2023-03-17T06:57:26.995Z,85.25
2023-03-17T06:59:54.346Z,85.06
2023-03-17T07:02:21.373Z,83.88
2023-03-17T07:04:48.552Z,83.96
2023-03-17T07:07:16.215Z,83.66
2023-03-17T07:09:43.229Z,82.59
2023-03-17T07:12:10.329Z,81.65
2023-03-17T07:14:37.590Z,80.26
2023-03-17T07:17:05.312Z,79.54
2023-03-17T07:19:33.283Z,80.23
2023-03-17T07:22:00.397Z,78.72
2023-03-17T07:24:27.459Z,78.53
2023-03-17T07:26:54.550Z,78.48
2023-03-17T07:29:22.672Z,77.70
2023-03-17T07:31:49.989Z,77.73
2023-03-17T07:34:17.750Z,76.74
2023-03-17T07:36:44.839Z,76.57
2023-03-17T07:39:12.697Z,76.13
2023-03-17T07:41:39.812Z,75.62
2023-03-17T07:44:11.317Z,75.86
2023-03-17T07:46:38.907Z,75.33
2023-03-17T07:49:06.259Z,75.11
2023-03-17T07:51:33.335Z,75.07
2023-03-17T07:54:03.975Z,74.82
2023-03-17T07:56:32.609Z,74.47
2023-03-17T07:58:59.943Z,74.29
2023-03-17T08:01:27.997Z,74.31
2023-03-17T08:03:56.358Z,73.85
2023-03-17T08:06:25.255Z,73.40
2023-03-17T08:08:53.585Z,72.68
2023-03-17T08:11:21.137Z,71.84
2023-03-17T08:13:48.545Z,71.22
2023-03-17T08:16:15.946Z,70.96
2023-03-17T08:18:43.088Z,70.39
2023-03-17T08:21:10.713Z,70.01
2023-03-17T08:23:37.759Z,69.33
2023-03-17T08:26:04.964Z,69.33
2023-03-17T08:28:32.484Z,68.41
2023-03-17T08:31:12.421Z,67.60
2023-03-17T08:33:42.332Z,67.48
2023-03-17T08:36:11.245Z,67.27
2023-03-17T08:38:40.490Z,66.35
2023-03-17T08:41:10.752Z,66.82
2023-03-17T08:43:38.190Z,66.27
2023-03-17T08:46:14.394Z,66.79
2023-03-17T08:48:41.425Z,66.58
2023-03-17T08:51:09.138Z,66.38
2023-03-17T08:53:36.176Z,66.80
2023-03-17T08:56:04.919Z,67.96
2023-03-17T08:58:31.931Z,69.08
2023-03-17T09:01:00.592Z,68.40
2023-03-17T09:03:28.933Z,67.92
2023-03-17T09:05:56.800Z,68.80
2023-03-17T09:08:24.062Z,69.16
2023-03-17T09:10:51.893Z,67.98
2023-03-17T09:13:19.091Z,66.50
2023-03-17T09:15:46.116Z,66.83
2023-03-17T09:18:14.518Z,67.50
2023-03-17T09:20:41.568Z,66.86
2023-03-17T09:23:10.577Z,67.67
2023-03-17T09:25:38.967Z,67.26
2023-03-17T09:28:07.186Z,67.76
2023-03-17T09:30:34.825Z,68.12
2023-03-17T09:33:01.865Z,67.93
2023-03-17T09:35:31.266Z,67.97
2023-03-17T09:37:58.469Z,66.79
2023-03-17T09:40:32.846Z,66.42
2023-03-17T09:43:29.021Z,67.48
2023-03-17T09:45:56.202Z,66.24
2023-03-17T09:48:44.484Z,66.72
2023-03-17T09:51:14.259Z,66.64
2023-03-17T09:53:54.369Z,65.37
2023-03-17T09:56:23.252Z,66.14
2023-03-17T09:59:07.647Z,65.25
2023-03-17T10:01:35.041Z,64.95
2023-03-17T10:04:02.606Z,65.70
2023-03-17T10:06:37.823Z,64.31
2023-03-17T10:09:18.317Z,64.00
2023-03-17T10:11:54.360Z,62.96
2023-03-17T10:14:38.454Z,63.21
2023-03-17T10:17:17.539Z,63.50
2023-03-17T10:19:56.613Z,62.95
2023-03-17T10:22:36.219Z,63.05
2023-03-17T10:25:14.966Z,63.16
2023-03-17T10:27:44.760Z,62.38
2023-03-17T10:30:18.287Z,62.13
2023-03-17T10:32:46.530Z,62.07
2023-03-17T10:35:15.436Z,61.88
2023-03-17T10:37:44.009Z,62.32
2023-03-17T10:40:24.382Z,62.38
2023-03-17T10:43:07.605Z,62.13
2023-03-17T10:45:42.754Z,62.57
2023-03-17T10:48:18.934Z,62.70
2023-03-17T10:50:49.358Z,62.03
2023-03-17T10:53:29.559Z,62.38
2023-03-17T10:56:00.900Z,62.31
2023-03-17T10:58:46.927Z,62.72
2023-03-17T11:01:30.057Z,62.15
2023-03-17T11:03:57.634Z,62.40
2023-03-17T11:06:36.888Z,62.04
2023-03-17T11:09:16.762Z,62.06
2023-03-17T11:11:46.891Z,61.70
2023-03-17T11:14:16.950Z,61.64
2023-03-17T11:16:54.944Z,61.40
2023-03-17T11:19:29.366Z,60.73
2023-03-17T11:21:59.996Z,60.00
2023-03-17T11:24:33.465Z,59.80
2023-03-17T11:27:15.232Z,58.87
2023-03-17T11:29:51.007Z,58.77
2023-03-17T11:32:39.866Z,57.92
2023-03-17T11:35:38.818Z,57.67
2023-03-17T11:38:26.735Z,57.88
2023-03-17T11:41:12.466Z,57.42
2023-03-17T11:43:55.685Z,56.93
2023-03-17T11:46:29.465Z,56.30
2023-03-17T11:49:17.564Z,56.82
2023-03-17T11:52:06.162Z,56.31
2023-03-17T11:55:00.184Z,55.58
2023-03-17T11:57:35.147Z,55.92
2023-03-17T12:00:07.387Z,54.66
2023-03-17T12:02:57.969Z,54.65
2023-03-17T12:05:27.280Z,53.95
2023-03-17T12:08:02.012Z,54.15
2023-03-17T12:10:52.183Z,53.87
2023-03-17T12:13:31.013Z,53.70
2023-03-17T12:16:04.376Z,53.59
2023-03-17T12:18:49.153Z,53.33
2023-03-17T12:21:32.770Z,54.41
2023-03-17T12:24:05.615Z,54.19
2023-03-17T12:26:48.414Z,53.82
2023-03-17T12:29:37.733Z,54.25
2023-03-17T12:32:21.660Z,54.09
2023-03-17T12:34:57.293Z,54.07
2023-03-17T12:37:27.579Z,53.64
2023-03-17T12:40:00.771Z,53.75
2023-03-17T12:42:54.614Z,52.92
2023-03-17T12:45:26.472Z,53.59
2023-03-17T12:48:18.642Z,52.29
2023-03-17T12:51:19.583Z,52.88
2023-03-17T12:53:48.772Z,53.08
2023-03-17T12:56:29.878Z,52.97
2023-03-17T12:59:07.072Z,53.40
2023-03-17T13:01:38.564Z,52.99
2023-03-17T13:04:16.834Z,52.56
2023-03-17T13:06:46.796Z,51.86
2023-03-17T13:09:32.067Z,52.60
2023-03-17T13:12:01.182Z,51.82
2023-03-17T13:14:46.900Z,53.15
2023-03-17T13:17:17.887Z,53.18
2023-03-17T13:20:04.271Z,53.27
2023-03-17T13:22:40.424Z,52.52
2023-03-17T13:25:26.622Z,53.52
2023-03-17T13:27:53.793Z,53.17
2023-03-17T13:30:26.843Z,53.30
2023-03-17T13:33:02.435Z,52.71
2023-03-17T13:35:44.677Z,52.44
2023-03-17T13:39:18.626Z,53.08
2023-03-17T13:42:01.128Z,52.68
2023-03-17T13:44:54.171Z,52.54
2023-03-17T13:47:24.549Z,52.97
2023-03-17T13:49:59.652Z,52.58
2023-03-17T13:52:49.460Z,52.22
2023-03-17T13:55:20.301Z,51.78
2023-03-17T13:58:11.089Z,52.69
2023-03-17T14:00:41.521Z,51.37
2023-03-17T14:03:17.445Z,50.70
2023-03-17T14:05:49.377Z,49.98
2023-03-17T14:08:22.215Z,49.64
2023-03-17T14:10:59.539Z,50.19
2023-03-17T14:13:38.534Z,50.60
2023-03-17T14:16:15.794Z,49.82
2023-03-17T14:18:49.635Z,50.19
2023-03-17T14:21:29.334Z,50.91
2023-03-17T14:23:58.757Z,51.28
2023-03-17T14:26:29.390Z,51.14
2023-03-17T14:29:01.052Z,51.19
2023-03-17T14:31:29.209Z,50.71
2023-03-17T14:33:59.069Z,51.10
2023-03-17T14:36:28.618Z,51.01
2023-03-17T14:38:56.760Z,50.33
2023-03-17T14:41:26.938Z,51.34
2023-03-17T14:43:59.005Z,51.60
2023-03-17T14:46:31.156Z,51.15
2023-03-17T14:49:14.224Z,52.15
2023-03-17T14:51:42.097Z,51.73
2023-03-17T14:54:30.392Z,52.62
2023-03-17T14:57:04.932Z,51.96
2023-03-17T14:59:40.954Z,50.42
2023-03-17T15:02:24.371Z,51.08
2023-03-17T15:04:54.069Z,51.65
2023-03-17T15:07:42.320Z,51.87
2023-03-17T15:10:19.458Z,51.97
2023-03-17T15:12:48.192Z,51.04
2023-03-17T15:15:28.655Z,51.17
2023-03-17T15:17:58.047Z,52.58
2023-03-17T15:20:25.524Z,51.33
2023-03-17T15:22:55.241Z,52.58
2023-03-17T15:25:45.248Z,51.78
2023-03-17T15:28:18.172Z,51.38
2023-03-17T15:30:48.480Z,51.25
2023-03-17T15:33:27.947Z,52.43
2023-03-17T15:36:00.225Z,52.48
2023-03-17T15:38:28.056Z,52.73
2023-03-17T15:40:55.617Z,52.51
2023-03-17T15:43:23.184Z,52.71
2023-03-17T15:46:16.783Z,53.32
2023-03-17T15:48:43.806Z,52.93
2023-03-17T15:51:10.796Z,52.77
2023-03-17T15:53:37.876Z,54.06
2023-03-17T15:56:06.057Z,54.23
2023-03-17T15:58:33.126Z,54.12
2023-03-17T16:01:01.337Z,54.21
2023-03-17T16:03:33.955Z,54.48
2023-03-17T16:06:02.713Z,55.07
2023-03-17T16:08:30.100Z,55.09
2023-03-17T16:10:57.308Z,55.09
2023-03-17T16:13:24.475Z,54.93
2023-03-17T16:15:57.493Z,55.28
2023-03-17T16:18:37.564Z,55.70
2023-03-17T16:21:05.116Z,55.40
2023-03-17T16:23:36.894Z,56.06
2023-03-17T16:26:14.637Z,55.52
2023-03-17T16:28:45.381Z,55.89
2023-03-17T16:31:30.062Z,56.50
2023-03-17T16:33:57.576Z,56.71
2023-03-17T16:36:25.333Z,57.07
2023-03-17T16:38:52.966Z,56.90
2023-03-17T16:41:24.279Z,57.17
2023-03-17T16:43:55.097Z,57.21
2023-03-17T16:46:22.609Z,57.53
2023-03-17T16:48:50.824Z,57.33
2023-03-17T16:51:18.477Z,57.15
2023-03-17T16:53:46.457Z,57.98
2023-03-17T16:56:17.719Z,57.50
2023-03-17T16:58:45.588Z,57.63
2023-03-17T17:01:16.233Z,57.90
2023-03-17T17:03:44.088Z,57.98
2023-03-17T17:06:14.221Z,59.66
2023-03-17T17:08:42.863Z,58.63
2023-03-17T17:11:12.918Z,59.18
2023-03-17T17:13:44.100Z,59.62
2023-03-17T17:16:26.579Z,58.87
2023-03-17T17:18:54.177Z,59.61
2023-03-17T17:21:21.358Z,60.39
2023-03-17T17:23:48.444Z,61.86
2023-03-17T17:26:15.668Z,63.00
2023-03-17T17:28:42.751Z,62.64
2023-03-17T17:31:10.658Z,62.46
2023-03-17T17:33:38.136Z,61.82
2023-03-17T17:36:11.510Z,60.83
2023-03-17T17:38:38.665Z,60.45
2023-03-17T17:41:06.853Z,60.45
2023-03-17T17:44:08.061Z,60.05
2023-03-17T17:46:35.291Z,59.48
2023-03-17T17:49:03.391Z,60.03
2023-03-17T17:51:32.563Z,60.47
2023-03-17T17:53:59.583Z,60.58
2023-03-17T17:56:26.655Z,60.91
2023-03-17T17:58:53.703Z,61.24
2023-03-17T18:01:22.538Z,61.68
2023-03-17T18:03:49.722Z,62.40
2023-03-17T18:06:17.843Z,63.93
2023-03-17T18:08:45.496Z,64.69
2023-03-17T18:11:12.712Z,65.48
2023-03-17T18:13:40.866Z,65.55
2023-03-17T18:16:12.174Z,66.84
2023-03-17T18:18:42.234Z,67.56
2023-03-17T18:21:09.682Z,68.19
2023-03-17T18:23:46.727Z,70.09
2023-03-17T18:26:15.545Z,70.26
2023-03-17T18:28:43.402Z,69.74
2023-03-17T18:31:14.316Z,69.49
2023-03-17T18:33:43.362Z,70.03
2023-03-17T18:36:11.338Z,69.26
2023-03-17T18:38:38.813Z,71.15
2023-03-17T18:41:07.122Z,73.50
2023-03-17T18:43:34.191Z,75.36
2023-03-17T18:46:01.217Z,75.71
2023-03-17T18:48:28.353Z,75.48
2023-03-17T18:50:55.493Z,76.20
2023-03-17T18:53:22.854Z,76.47
2023-03-17T18:55:49.831Z,76.48
2023-03-17T18:58:17.062Z,76.85
2023-03-17T19:00:44.281Z,77.99
2023-03-17T19:03:11.315Z,77.24
2023-03-17T19:05:39.390Z,77.18
2023-03-17T19:08:06.701Z,78.43
2023-03-17T19:10:34.202Z,78.57
2023-03-17T19:13:02.034Z,77.86
2023-03-17T19:15:29.068Z,77.95
2023-03-17T19:17:56.084Z,76.25
2023-03-17T19:20:23.094Z,77.30
2023-03-17T19:22:53.128Z,75.84
2023-03-17T19:25:21.169Z,75.92
2023-03-17T19:27:48.214Z,77.04
2023-03-17T19:30:15.729Z,76.47
2023-03-17T19:32:43.525Z,77.21
2023-03-17T19:35:11.574Z,76.11
2023-03-17T19:37:38.851Z,77.44
2023-03-17T19:40:09.598Z,77.70
2023-03-17T19:42:36.985Z,77.26
2023-03-17T19:45:05.126Z,77.91
2023-03-17T19:47:32.189Z,77.33
2023-03-17T19:49:59.385Z,77.45
2023-03-17T19:52:26.478Z,77.55
2023-03-17T19:54:53.505Z,79.68
2023-03-17T19:57:20.869Z,79.85
2023-03-17T19:59:48.035Z,80.99
2023-03-17T20:02:15.921Z,80.55
2023-03-17T20:04:43.123Z,80.15
2023-03-17T20:07:10.590Z,80.62
2023-03-17T20:09:37.912Z,80.57
2023-03-17T20:12:05.754Z,80.96
2023-03-17T20:14:32.867Z,80.96
2023-03-17T20:16:59.846Z,81.18
2023-03-17T20:19:27.489Z,81.20
2023-03-17T20:21:54.944Z,81.66
2023-03-17T20:24:22.625Z,82.35
2023-03-17T20:26:50.031Z,82.84
2023-03-17T20:29:17.645Z,82.14
2023-03-17T20:31:44.715Z,83.38
2023-03-17T20:34:12.200Z,83.07
2023-03-17T20:36:42.267Z,83.63
2023-03-17T20:39:14.661Z,84.47
2023-03-17T20:41:41.688Z,84.93
2023-03-17T20:44:08.816Z,85.98
2023-03-17T20:46:36.026Z,85.18
2023-03-17T20:49:04.024Z,84.70
2023-03-17T20:51:32.270Z,84.42
2023-03-17T20:54:00.661Z,84.45
2023-03-17T20:56:29.794Z,85.05
2023-03-17T20:58:58.300Z,84.53
2023-03-17T21:01:25.545Z,85.25
2023-03-17T21:03:53.395Z,85.94
2023-03-17T21:06:20.674Z,86.77
2023-03-17T21:08:47.699Z,86.68
2023-03-17T21:11:17.809Z,87.17
2023-03-17T21:13:44.944Z,87.57
2023-03-17T21:16:21.532Z,87.71
2023-03-17T21:18:48.561Z,89.18
2023-03-17T21:21:16.516Z,89.38
2023-03-17T21:23:43.968Z,90.34
2023-03-17T21:26:12.247Z,90.99
2023-03-17T21:28:41.521Z,91.82
2023-03-17T21:31:10.682Z,90.31
2023-03-17T21:33:38.100Z,91.62
2023-03-17T21:36:06.084Z,89.77
2023-03-17T21:38:33.125Z,90.28
2023-03-17T21:41:30.357Z,92.47
2023-03-17T21:43:57.997Z,93.17
2023-03-17T21:46:25.502Z,95.14
2023-03-17T21:48:53.942Z,96.46
2023-03-17T21:51:20.990Z,97.23
2023-03-17T21:53:48.489Z,98.37
2023-03-17T21:56:16.137Z,98.57
2023-03-17T21:58:43.216Z,98.47
2023-03-17T22:01:11.474Z,97.17
2023-03-17T22:03:39.851Z,98.43
2023-03-17T22:06:07.304Z,97.60
2023-03-17T22:08:34.694Z,96.83
2023-03-17T22:11:07.336Z,96.03
2023-03-17T22:13:34.814Z,96.67
2023-03-17T22:16:02.122Z,96.45
2023-03-17T22:18:29.122Z,94.54
2023-03-17T22:20:57.589Z,94.01
2023-03-17T22:23:26.293Z,95.22
2023-03-17T22:25:53.428Z,94.29
2023-03-17T22:28:20.478Z,94.83
2023-03-17T22:30:47.501Z,95.44
2023-03-17T22:33:15.373Z,95.75
2023-03-17T22:35:42.447Z,96.34
2023-03-17T22:38:11.392Z,96.34
2023-03-17T22:40:38.624Z,100.00
2023-03-17T22:43:05.729Z,100.00
2023-03-17T22:45:32.740Z,100.00
2023-03-17T22:47:59.804Z,100.00
2023-03-17T22:50:27.145Z,100.00
2023-03-17T22:52:54.190Z,100.00
2023-03-17T22:55:21.376Z,100.00
2023-03-17T22:57:48.594Z,100.00
2023-03-17T23:00:16.989Z,100.00
2023-03-17T23:02:46.234Z,100.00
2023-03-17T23:05:14.488Z,100.00
2023-03-17T23:07:50.244Z,100.00
2023-03-17T23:10:22.948Z,100.00
2023-03-17T23:12:51.007Z,100.00
2023-03-17T23:15:19.623Z,100.00
2023-03-17T23:17:47.383Z,100.00
2023-03-17T23:20:15.245Z,100.00
2023-03-17T23:22:42.468Z,100.00
2023-03-17T23:25:10.656Z,100.00
2023-03-17T23:27:37.648Z,100.00
2023-03-17T23:30:05.787Z,100.00
2023-03-17T23:32:34.054Z,100.00
2023-03-17T23:35:01.280Z,100.00
2023-03-17T23:37:28.401Z,100.00
2023-03-17T23:39:56.135Z,100.00
2023-03-17T23:42:23.134Z,100.00
2023-03-17T23:44:50.327Z,100.00
2023-03-17T23:47:17.930Z,100.00
2023-03-17T23:49:44.941Z,100.00
2023-03-17T23:52:12.158Z,100.00
2023-03-17T23:54:39.628Z,100.00
2023-03-17T23:57:07.685Z,100.00
2023-03-17T23:59:34.893Z,100.00
